createdAt,value
2018-12-21T00:00:21.834Z,10.80
2018-12-21T00:02:51.752Z,10.20
2018-12-21T00:05:21.184Z,11.20
2018-12-21T00:07:50.262Z,11.30
2018-12-21T00:10:19.363Z,10.50
2018-12-21T00:12:48.627Z,10.50
2018-12-21T00:15:17.945Z,10.20
2018-12-21T00:17:47.634Z,10.50
2018-12-21T00:20:16.797Z,10.70
2018-12-21T00:22:45.942Z,10.60
2018-12-21T00:25:15.207Z,10.20
2018-12-21T00:30:19.066Z,10.10
2018-12-21T00:32:53.612Z,9.80
2018-12-21T00:35:27.918Z,10.00
2018-12-21T00:38:02.204Z,9.90
2018-12-21T00:40:36.395Z,10.60
2018-12-21T00:43:11.165Z,10.90
2018-12-21T00:45:45.502Z,10.30
2018-12-21T00:48:14.690Z,10.00
2018-12-21T00:50:43.748Z,10.60
2018-12-21T00:53:12.996Z,10.50
2018-12-21T00:55:42.143Z,10.90
2018-12-21T00:58:11.272Z,10.70
2018-12-21T01:00:40.452Z,10.00
2018-12-21T01:03:09.680Z,10.30
2018-12-21T01:05:38.840Z,10.20
2018-12-21T01:08:08.059Z,10.30
2018-12-21T01:10:37.428Z,10.30
2018-12-21T01:13:06.632Z,10.00
2018-12-21T01:15:36.052Z,10.50
2018-12-21T01:18:05.371Z,10.40
2018-12-21T01:20:34.579Z,10.50
2018-12-21T01:23:03.675Z,10.70
2018-12-21T01:25:32.816Z,10.60
2018-12-21T01:28:01.850Z,10.50
2018-12-21T01:30:30.810Z,10.80
2018-12-21T01:32:59.948Z,10.60
2018-12-21T01:35:29.091Z,10.20
2018-12-21T01:37:58.132Z,10.80
2018-12-21T01:40:27.543Z,10.30
2018-12-21T01:42:57.595Z,10.40
2018-12-21T01:45:26.882Z,10.20
2018-12-21T01:47:56.026Z,10.10
2018-12-21T01:50:25.132Z,10.20
2018-12-21T01:52:54.239Z,10.30
2018-12-21T01:55:23.361Z,9.70
2018-12-21T01:57:52.534Z,10.20
2018-12-21T02:00:21.952Z,10.20
2018-12-21T02:02:51.197Z,10.10
2018-12-21T02:05:21.436Z,10.40
2018-12-21T02:07:50.500Z,10.40
2018-12-21T02:10:19.615Z,10.60
2018-12-21T02:12:48.803Z,10.10
2018-12-21T02:15:17.940Z,10.00
2018-12-21T02:17:47.040Z,10.10
2018-12-21T02:20:16.215Z,10.30
2018-12-21T02:22:45.485Z,10.10
2018-12-21T02:25:14.611Z,10.80
2018-12-21T02:27:44.032Z,10.80
2018-12-21T02:30:13.333Z,10.90
2018-12-21T02:32:42.471Z,10.80
2018-12-21T02:35:11.724Z,10.60
2018-12-21T02:37:40.905Z,10.60
2018-12-21T02:40:10.635Z,10.70
2018-12-21T02:42:39.716Z,10.10
2018-12-21T02:45:09.164Z,10.40
2018-12-21T02:47:38.333Z,10.50
2018-12-21T02:50:07.919Z,10.70
2018-12-21T02:52:37.541Z,10.90
2018-12-21T02:55:07.212Z,11.10
2018-12-21T02:57:36.834Z,11.10
2018-12-21T03:00:07.078Z,10.60
2018-12-21T03:02:36.164Z,10.80
2018-12-21T03:05:05.340Z,10.50
2018-12-21T03:07:34.659Z,10.30
2018-12-21T03:10:05.055Z,9.90
2018-12-21T03:12:34.226Z,10.10
2018-12-21T03:15:04.573Z,10.10
2018-12-21T03:17:34.267Z,9.90
2018-12-21T03:20:03.597Z,10.30
2018-12-21T03:22:32.764Z,10.20
2018-12-21T03:25:01.749Z,9.90
2018-12-21T03:27:30.891Z,9.80
2018-12-21T03:30:00.039Z,9.90
2018-12-21T03:32:29.177Z,9.60
2018-12-21T03:34:59.330Z,9.80
2018-12-21T03:37:29.297Z,9.80
2018-12-21T03:39:59.228Z,9.90
2018-12-21T03:42:28.314Z,10.00
2018-12-21T03:44:57.591Z,10.10
2018-12-21T03:47:26.725Z,10.00
2018-12-21T03:49:55.770Z,9.60
2018-12-21T03:52:24.895Z,9.70
2018-12-21T03:54:53.875Z,10.00
2018-12-21T03:57:23.119Z,10.20
2018-12-21T03:59:52.250Z,10.40
2018-12-21T04:02:21.413Z,10.50
2018-12-21T04:04:50.436Z,10.20
2018-12-21T04:07:19.595Z,10.80
2018-12-21T04:09:48.980Z,10.70
2018-12-21T04:12:18.184Z,10.80
2018-12-21T04:14:47.497Z,10.50
2018-12-21T04:17:16.856Z,10.30
2018-12-21T04:19:46.037Z,10.30
2018-12-21T04:27:13.793Z,10.90
2018-12-21T04:29:43.723Z,10.50
2018-12-21T04:32:12.901Z,9.90
2018-12-21T04:34:42.712Z,9.60
2018-12-21T04:37:11.897Z,9.60
2018-12-21T04:39:41.050Z,9.50
2018-12-21T04:42:10.189Z,9.50
2018-12-21T04:44:39.236Z,9.80
2018-12-21T04:47:08.368Z,9.70
2018-12-21T04:49:37.545Z,9.70
2018-12-21T04:52:06.888Z,9.10
2018-12-21T04:54:35.997Z,9.20
2018-12-21T04:57:05.188Z,9.00
2018-12-21T04:59:34.312Z,9.30
2018-12-21T05:02:03.573Z,9.10
2018-12-21T05:04:32.749Z,8.90
2018-12-21T05:07:01.845Z,9.60
2018-12-21T05:09:30.934Z,9.90
2018-12-21T05:12:00.131Z,9.80
2018-12-21T05:14:29.237Z,9.90
2018-12-21T05:16:58.508Z,10.10
2018-12-21T05:19:27.752Z,10.10
2018-12-21T05:21:56.788Z,9.70
2018-12-21T05:24:25.799Z,9.40
2018-12-21T05:26:54.989Z,9.60
2018-12-21T05:29:24.127Z,9.80
2018-12-21T05:31:53.282Z,9.50
2018-12-21T05:34:22.300Z,9.20
2018-12-21T05:36:51.460Z,9.00
2018-12-21T05:39:20.507Z,9.50
2018-12-21T05:41:49.648Z,9.10
2018-12-21T05:44:18.767Z,9.10
2018-12-21T05:46:48.100Z,9.00
2018-12-21T05:49:17.178Z,8.80
2018-12-21T05:51:46.221Z,9.20
2018-12-21T05:54:15.991Z,9.00
2018-12-21T05:56:45.036Z,9.20
2018-12-21T05:59:14.293Z,9.50
2018-12-21T06:01:43.328Z,10.40
2018-12-21T06:04:12.464Z,9.40
2018-12-21T06:06:41.515Z,9.00
2018-12-21T06:09:10.539Z,8.80
2018-12-21T06:11:39.729Z,8.70
2018-12-21T06:14:08.979Z,9.10
2018-12-21T06:16:38.008Z,8.90
2018-12-21T06:19:07.135Z,9.00
2018-12-21T06:21:36.299Z,8.90
2018-12-21T06:24:05.416Z,8.80
2018-12-21T06:26:34.735Z,8.80
2018-12-21T06:29:03.776Z,8.80
2018-12-21T06:31:32.923Z,8.90
2018-12-21T06:34:02.080Z,9.00
2018-12-21T06:36:31.211Z,8.70
2018-12-21T06:39:00.423Z,8.70
2018-12-21T06:41:29.595Z,8.80
2018-12-21T06:43:58.611Z,8.70
2018-12-21T06:46:27.685Z,8.90
2018-12-21T06:48:56.733Z,8.80
2018-12-21T06:51:25.795Z,8.90
2018-12-21T06:53:54.940Z,9.00
2018-12-21T06:56:24.088Z,8.90
2018-12-21T06:58:53.392Z,9.10
2018-12-21T07:01:22.589Z,9.10
2018-12-21T07:03:51.719Z,9.10
2018-12-21T07:06:20.877Z,9.10
2018-12-21T07:08:50.054Z,9.00
2018-12-21T07:11:19.151Z,9.30
2018-12-21T07:13:48.308Z,9.00
2018-12-21T07:16:17.459Z,9.50
2018-12-21T07:18:46.664Z,8.80
2018-12-21T07:21:15.975Z,8.90
2018-12-21T07:23:45.101Z,8.90
2018-12-21T07:26:14.356Z,9.00
2018-12-21T07:28:43.563Z,9.20
2018-12-21T07:31:12.621Z,9.40
2018-12-21T07:33:41.799Z,9.20
2018-12-21T07:36:10.992Z,8.90
2018-12-21T07:38:40.239Z,9.20
2018-12-21T07:41:09.301Z,9.10
2018-12-21T07:43:38.270Z,8.80
2018-12-21T07:46:07.904Z,8.80
2018-12-21T07:48:37.028Z,8.80
2018-12-21T07:51:06.959Z,8.80
2018-12-21T07:53:36.282Z,9.00
2018-12-21T07:56:05.492Z,9.00
2018-12-21T07:58:34.607Z,9.40
2018-12-21T08:01:03.777Z,9.40
2018-12-21T08:03:32.905Z,9.60
2018-12-21T08:06:01.975Z,9.30
2018-12-21T08:08:31.100Z,9.00
2018-12-21T08:11:00.248Z,9.10
2018-12-21T08:13:29.239Z,9.20
2018-12-21T08:15:58.255Z,9.20
2018-12-21T08:18:27.280Z,9.10
2018-12-21T08:20:56.447Z,9.20
2018-12-21T08:23:25.558Z,9.70
2018-12-21T08:25:54.619Z,9.30
2018-12-21T08:28:23.757Z,9.10
2018-12-21T08:30:52.811Z,9.10
2018-12-21T08:33:21.841Z,9.30
2018-12-21T08:35:51.165Z,9.20
2018-12-21T08:38:20.460Z,9.20
2018-12-21T08:40:49.716Z,9.20
2018-12-21T08:43:18.855Z,9.40
2018-12-21T08:45:47.892Z,9.50
2018-12-21T08:48:17.029Z,9.20
2018-12-21T08:50:46.993Z,9.40
2018-12-21T08:53:16.141Z,9.30
2018-12-21T08:55:45.192Z,9.30
2018-12-21T08:58:14.346Z,9.40
2018-12-21T09:00:43.375Z,9.40
2018-12-21T09:03:12.363Z,9.30
2018-12-21T09:05:41.372Z,9.50
2018-12-21T09:08:10.519Z,9.70
2018-12-21T09:10:39.672Z,9.70
2018-12-21T09:13:08.678Z,9.60
2018-12-21T09:15:38.007Z,9.80
2018-12-21T09:18:07.208Z,9.50
2018-12-21T09:20:36.241Z,9.30
2018-12-21T09:23:05.479Z,9.30
2018-12-21T09:25:34.740Z,9.40
2018-12-21T09:28:03.782Z,9.70
2018-12-21T09:30:32.827Z,9.80
2018-12-21T09:33:01.872Z,9.40
2018-12-21T09:35:31.026Z,9.60
2018-12-21T09:38:00.004Z,9.50
2018-12-21T09:40:29.163Z,9.30
2018-12-21T09:42:58.359Z,9.90
2018-12-21T09:45:27.495Z,9.70
2018-12-21T09:47:56.635Z,9.70
2018-12-21T09:50:25.853Z,9.40
2018-12-21T09:52:55.000Z,9.20
2018-12-21T09:55:24.075Z,9.50
2018-12-21T09:57:53.067Z,9.50
2018-12-21T10:00:22.958Z,9.80
2018-12-21T10:02:51.976Z,9.60
2018-12-21T10:05:21.123Z,9.90
2018-12-21T10:07:50.338Z,10.10
2018-12-21T10:10:19.484Z,9.90
2018-12-21T10:12:53.336Z,10.00
2018-12-21T10:15:19.960Z,10.10
2018-12-21T10:17:49.115Z,10.10
2018-12-21T10:20:20.037Z,10.50
2018-12-21T10:22:49.493Z,10.20
2018-12-21T10:25:18.684Z,10.10
2018-12-21T10:27:47.862Z,10.10
2018-12-21T10:30:16.991Z,10.20
2018-12-21T10:32:46.307Z,10.20
2018-12-21T10:35:15.478Z,10.40
2018-12-21T10:37:44.531Z,10.90
2018-12-21T10:40:13.666Z,10.90
2018-12-21T10:42:42.992Z,10.60
2018-12-21T10:45:12.175Z,10.80
2018-12-21T10:47:41.319Z,10.70
2018-12-21T10:50:11.864Z,10.90
2018-12-21T10:52:41.051Z,10.80
2018-12-21T10:55:10.281Z,11.00
2018-12-21T10:57:39.352Z,11.60
2018-12-21T11:00:10.841Z,11.70
2018-12-21T11:02:39.997Z,11.80
2018-12-21T11:05:09.556Z,11.80
2018-12-21T11:07:38.588Z,11.80
2018-12-21T11:10:10.402Z,11.60
2018-12-21T11:12:39.562Z,11.50
2018-12-21T11:15:08.412Z,11.80
2018-12-21T11:17:37.792Z,11.80
2018-12-21T11:20:08.103Z,11.80
2018-12-21T11:22:37.242Z,11.80
2018-12-21T11:25:08.833Z,12.00
2018-12-21T11:27:38.043Z,11.90
2018-12-21T11:30:08.031Z,12.10
2018-12-21T11:32:37.050Z,12.10
2018-12-21T11:35:06.422Z,12.20
2018-12-21T11:37:35.560Z,12.10
2018-12-21T11:40:04.992Z,12.00
2018-12-21T11:42:34.155Z,12.30
2018-12-21T11:45:03.414Z,12.10
2018-12-21T11:47:32.440Z,12.20
2018-12-21T11:50:01.504Z,12.40
2018-12-21T11:52:30.519Z,12.40
2018-12-21T11:54:59.581Z,12.50
2018-12-21T11:57:28.718Z,12.40
2018-12-21T11:59:57.881Z,12.50
2018-12-21T12:02:27.110Z,12.50
2018-12-21T12:04:56.181Z,12.60
2018-12-21T12:07:25.329Z,12.60
2018-12-21T12:09:54.451Z,12.80
2018-12-21T12:12:23.496Z,12.70
2018-12-21T12:14:52.661Z,12.90
2018-12-21T12:17:21.799Z,12.90
2018-12-21T12:19:51.006Z,12.90
2018-12-21T12:22:20.175Z,12.90
2018-12-21T12:24:52.831Z,12.80
2018-12-21T12:27:21.339Z,13.10
2018-12-21T12:29:50.405Z,13.00
2018-12-21T12:32:19.554Z,12.90
2018-12-21T12:34:49.559Z,12.90
2018-12-21T12:37:18.765Z,13.10
2018-12-21T12:39:47.900Z,13.10
2018-12-21T12:42:17.260Z,13.10
2018-12-21T12:44:46.932Z,13.20
2018-12-21T12:47:16.174Z,13.30
2018-12-21T12:49:46.316Z,13.50
2018-12-21T12:52:15.673Z,13.40
2018-12-21T12:54:44.833Z,13.50
2018-12-21T12:57:14.365Z,13.40
2018-12-21T12:59:43.668Z,13.30
2018-12-21T13:02:12.971Z,13.50
2018-12-21T13:04:42.179Z,13.50
2018-12-21T13:07:11.215Z,13.50
2018-12-21T13:09:40.471Z,13.60
2018-12-21T13:12:09.513Z,13.60
2018-12-21T13:14:38.778Z,13.60
2018-12-21T13:17:07.932Z,13.50
2018-12-21T13:19:36.939Z,13.40
2018-12-21T13:22:06.164Z,13.40
2018-12-21T13:24:35.344Z,13.60
2018-12-21T13:27:04.602Z,13.60
2018-12-21T13:29:33.639Z,13.50
2018-12-21T13:32:02.683Z,13.40
2018-12-21T13:34:31.840Z,13.50
2018-12-21T13:37:00.958Z,13.60
2018-12-21T13:39:30.125Z,13.50
2018-12-21T13:41:59.537Z,13.50
2018-12-21T13:44:29.244Z,13.60
2018-12-21T13:46:58.856Z,13.50
2018-12-21T13:49:28.226Z,13.40
2018-12-21T13:51:57.558Z,13.30
2018-12-21T13:54:26.940Z,13.30
2018-12-21T13:56:56.204Z,13.30
2018-12-21T13:59:25.655Z,13.30
2018-12-21T14:01:54.809Z,13.50
2018-12-21T14:04:24.264Z,13.40
2018-12-21T14:06:53.302Z,13.40
2018-12-21T14:09:22.479Z,13.40
2018-12-21T14:11:51.632Z,13.50
2018-12-21T14:14:20.795Z,13.40
2018-12-21T14:16:49.818Z,13.40
2018-12-21T14:19:18.979Z,13.40
2018-12-21T14:21:48.114Z,13.40
2018-12-21T14:24:17.172Z,13.30
2018-12-21T14:26:46.300Z,13.30
2018-12-21T14:29:15.453Z,13.40
2018-12-21T14:31:44.564Z,13.40
2018-12-21T14:34:13.562Z,13.40
2018-12-21T14:36:42.731Z,13.30
2018-12-21T14:39:11.897Z,13.40
2018-12-21T14:41:41.068Z,13.30
2018-12-21T14:44:10.233Z,13.30
2018-12-21T14:46:39.457Z,13.30
2018-12-21T14:49:08.488Z,13.30
2018-12-21T14:51:37.651Z,13.20
2018-12-21T14:54:06.894Z,13.20
2018-12-21T14:56:35.935Z,13.20
2018-12-21T14:59:05.209Z,13.20
2018-12-21T15:01:34.431Z,13.20
2018-12-21T15:04:04.421Z,13.00
2018-12-21T15:06:33.639Z,12.90
2018-12-21T15:09:03.656Z,13.00
2018-12-21T15:11:32.855Z,13.00
2018-12-21T15:14:02.021Z,13.00
2018-12-21T15:16:31.044Z,13.10
2018-12-21T15:19:00.209Z,13.00
2018-12-21T15:21:29.564Z,13.00
2018-12-21T15:23:58.770Z,12.90
2018-12-21T15:26:27.882Z,13.10
2018-12-21T15:28:57.467Z,13.00
2018-12-21T15:31:26.768Z,13.00
2018-12-21T15:33:55.935Z,13.00
2018-12-21T15:36:25.584Z,13.00
2018-12-21T15:38:54.631Z,12.90
2018-12-21T15:41:23.903Z,12.90
2018-12-21T15:43:52.936Z,13.00
2018-12-21T15:46:22.737Z,12.90
2018-12-21T15:48:51.963Z,12.80
2018-12-21T15:51:21.133Z,12.80
2018-12-21T15:53:50.229Z,12.80
2018-12-21T15:56:19.911Z,12.80
2018-12-21T15:58:49.035Z,12.80
2018-12-21T16:01:18.104Z,12.80
2018-12-21T16:03:47.464Z,12.70
2018-12-21T16:06:16.700Z,12.80
2018-12-21T16:08:45.844Z,12.70
2018-12-21T16:11:14.948Z,12.80
2018-12-21T16:13:44.133Z,12.70
2018-12-21T16:16:13.422Z,12.80
2018-12-21T16:18:42.612Z,12.80
2018-12-21T16:21:11.640Z,12.70
2018-12-21T16:23:40.805Z,12.70
2018-12-21T16:26:09.981Z,12.70
2018-12-21T16:28:38.987Z,12.80
2018-12-21T16:31:08.052Z,12.70
2018-12-21T16:33:37.288Z,12.70
2018-12-21T16:36:06.444Z,12.70
2018-12-21T16:38:35.712Z,12.60
2018-12-21T16:41:04.851Z,12.60
2018-12-21T16:43:33.868Z,12.50
2018-12-21T16:46:03.196Z,12.60
2018-12-21T16:48:32.495Z,12.50
2018-12-21T16:51:01.528Z,12.40
2018-12-21T16:53:30.763Z,12.40
2018-12-21T16:56:00.063Z,12.20
2018-12-21T16:58:29.224Z,12.20
2018-12-21T17:00:58.262Z,12.50
2018-12-21T17:03:27.411Z,12.50
2018-12-21T17:05:56.772Z,12.20
2018-12-21T17:08:26.119Z,12.30
2018-12-21T17:10:55.575Z,11.90
2018-12-21T17:13:24.611Z,11.80
2018-12-21T17:15:53.952Z,11.80
2018-12-21T17:18:24.965Z,11.70
2018-12-21T17:20:54.212Z,11.70
2018-12-21T17:23:23.239Z,11.50
2018-12-21T17:25:52.376Z,11.50
2018-12-21T17:28:21.546Z,11.60
2018-12-21T17:30:50.679Z,11.70
2018-12-21T17:33:19.840Z,11.60
2018-12-21T17:35:48.885Z,11.50
2018-12-21T17:38:18.192Z,11.30
2018-12-21T17:40:47.299Z,11.60
2018-12-21T17:43:16.367Z,11.50
2018-12-21T17:45:45.552Z,11.60
2018-12-21T17:48:14.600Z,11.70
2018-12-21T17:50:43.740Z,11.70
2018-12-21T17:53:13.342Z,11.80
2018-12-21T17:55:43.938Z,11.80
2018-12-21T17:58:14.486Z,11.80
2018-12-21T18:00:44.751Z,11.90
2018-12-21T18:03:22.796Z,12.00
2018-12-21T18:05:53.080Z,12.10
2018-12-21T18:08:23.271Z,11.90
2018-12-21T18:10:52.361Z,11.90
2018-12-21T18:13:21.583Z,11.80
2018-12-21T18:15:50.674Z,12.00
2018-12-21T18:18:25.207Z,12.00
2018-12-21T18:20:50.867Z,12.00
2018-12-21T18:23:19.956Z,12.10
2018-12-21T18:25:48.982Z,12.10
2018-12-21T18:28:23.283Z,12.10
2018-12-21T18:30:56.267Z,12.30
2018-12-21T18:33:26.059Z,12.20
2018-12-21T18:35:55.146Z,12.20
2018-12-21T18:38:27.059Z,12.20
2018-12-21T18:40:56.108Z,12.10
2018-12-21T18:43:25.360Z,12.10
2018-12-21T18:45:54.607Z,12.20
2018-12-21T18:48:23.759Z,12.20
2018-12-21T18:50:52.899Z,12.10
2018-12-21T18:53:22.148Z,12.10
2018-12-21T18:55:53.154Z,12.10
2018-12-21T18:58:22.596Z,12.20
2018-12-21T19:00:51.904Z,12.20
2018-12-21T19:03:21.179Z,12.20
2018-12-21T19:05:50.235Z,12.10
2018-12-21T19:08:19.276Z,12.10
2018-12-21T19:10:48.464Z,12.10
2018-12-21T19:13:17.695Z,12.40
2018-12-21T19:15:46.724Z,12.10
2018-12-21T19:18:15.755Z,12.20
2018-12-21T19:20:44.919Z,12.10
2018-12-21T19:23:13.927Z,12.10
2018-12-21T19:25:43.216Z,12.10
2018-12-21T19:28:12.448Z,12.10
2018-12-21T19:30:41.495Z,12.10
2018-12-21T19:33:10.951Z,12.10
2018-12-21T19:35:40.511Z,12.20
2018-12-21T19:38:09.648Z,12.40
2018-12-21T19:40:38.956Z,12.20
2018-12-21T19:43:08.208Z,12.10
2018-12-21T19:45:37.327Z,12.20
2018-12-21T19:48:06.547Z,12.10
2018-12-21T19:50:35.782Z,12.10
2018-12-21T19:53:04.887Z,12.00
2018-12-21T19:57:47.032Z,12.20
2018-12-21T20:00:16.182Z,12.20
2018-12-21T20:02:45.399Z,12.00
2018-12-21T20:05:14.649Z,12.10
2018-12-21T20:07:43.784Z,12.00
2018-12-21T20:10:13.628Z,12.30
2018-12-21T20:12:43.035Z,12.30
2018-12-21T20:15:12.228Z,12.30
2018-12-21T20:17:41.940Z,12.10
2018-12-21T20:20:11.959Z,12.00
2018-12-21T20:22:41.235Z,12.10
2018-12-21T20:25:12.811Z,12.00
2018-12-21T20:27:42.438Z,12.00
2018-12-21T20:30:14.476Z,12.00
2018-12-21T20:32:43.658Z,12.10
2018-12-21T20:35:13.034Z,12.10
2018-12-21T20:37:42.267Z,12.00
2018-12-21T20:40:12.934Z,12.10
2018-12-21T20:42:42.071Z,12.00
2018-12-21T20:45:11.883Z,12.10
2018-12-21T20:47:41.336Z,12.20
2018-12-21T20:50:13.897Z,12.20
2018-12-21T20:52:43.987Z,12.00
2018-12-21T20:55:13.217Z,11.90
2018-12-21T20:57:44.058Z,12.00
2018-12-21T21:00:15.357Z,11.90
2018-12-21T21:02:44.504Z,12.00
2018-12-21T21:05:13.861Z,12.20
2018-12-21T21:07:43.051Z,11.90
2018-12-21T21:10:12.892Z,11.90
2018-12-21T21:12:42.462Z,11.90
2018-12-21T21:15:12.856Z,11.90
2018-12-21T21:17:42.087Z,11.90
2018-12-21T21:20:13.858Z,11.80
2018-12-21T21:22:43.261Z,12.00
2018-12-21T21:25:12.621Z,11.90
2018-12-21T21:27:41.873Z,12.10
2018-12-21T21:30:14.072Z,12.30
2018-12-21T21:32:43.207Z,12.10
2018-12-21T21:35:13.240Z,12.20
2018-12-21T21:37:42.298Z,12.00
2018-12-21T21:40:14.947Z,11.90
2018-12-21T21:42:44.088Z,11.90
2018-12-21T21:45:13.547Z,12.00
2018-12-21T21:47:42.683Z,12.00
2018-12-21T21:50:12.056Z,11.80
2018-12-21T21:52:41.080Z,11.80
2018-12-21T21:55:10.299Z,11.90
2018-12-21T21:57:39.823Z,12.00
2018-12-21T22:00:12.671Z,11.90
2018-12-21T22:02:41.855Z,12.00
2018-12-21T22:05:10.911Z,11.80
2018-12-21T22:07:40.052Z,11.80
2018-12-21T22:10:10.841Z,12.00
2018-12-21T22:12:40.002Z,11.90
2018-12-21T22:15:10.219Z,11.80
2018-12-21T22:17:39.300Z,12.00
2018-12-21T22:20:11.219Z,11.80
2018-12-21T22:22:40.455Z,11.90
2018-12-21T22:25:09.888Z,12.00
2018-12-21T22:27:47.683Z,11.90
2018-12-21T22:30:12.095Z,11.90
2018-12-21T22:32:41.260Z,11.80
2018-12-21T22:35:10.298Z,12.10
2018-12-21T22:37:39.298Z,12.00
2018-12-21T22:40:08.930Z,12.00
2018-12-21T22:42:37.989Z,11.70
2018-12-21T22:45:08.143Z,11.60
2018-12-21T22:47:37.265Z,11.60
2018-12-21T22:50:08.178Z,11.40
2018-12-21T22:52:37.847Z,11.30
2018-12-21T22:55:08.226Z,11.30
2018-12-21T22:57:37.411Z,11.80
2018-12-21T23:00:12.659Z,11.60
2018-12-21T23:02:41.815Z,11.50
2018-12-21T23:05:11.169Z,11.60
2018-12-21T23:07:40.310Z,11.50
2018-12-21T23:10:09.544Z,11.50
2018-12-21T23:12:38.651Z,11.50
2018-12-21T23:15:07.932Z,11.20
2018-12-21T23:17:37.273Z,11.60
2018-12-21T23:20:06.852Z,11.70
2018-12-21T23:22:36.103Z,11.60
2018-12-21T23:25:05.536Z,11.70
2018-12-21T23:27:34.700Z,11.60
2018-12-21T23:30:04.033Z,11.50
2018-12-21T23:32:33.200Z,11.30
2018-12-21T23:35:02.328Z,11.80
2018-12-21T23:37:31.503Z,11.50
2018-12-21T23:40:00.527Z,11.30
2018-12-21T23:42:29.571Z,11.40
2018-12-21T23:44:58.848Z,11.50
2018-12-21T23:47:27.971Z,11.30
2018-12-21T23:49:57.148Z,11.40
2018-12-21T23:52:26.156Z,11.50
2018-12-21T23:54:55.287Z,11.50
2018-12-21T23:57:24.453Z,11.50
2018-12-21T23:59:53.480Z,11.60
